createdAt,value
2023-02-26T00:00:15.163Z,99004.38
2023-02-26T00:02:49.156Z,99019.62
2023-02-26T00:05:22.324Z,99012.83
2023-02-26T00:07:55.316Z,99002.91
2023-02-26T00:10:28.361Z,99000.73
2023-02-26T00:13:01.522Z,98996.42
2023-02-26T00:15:34.888Z,98997.72
2023-02-26T00:18:11.035Z,98995.28
2023-02-26T00:20:45.148Z,98986.69
2023-02-26T00:23:18.874Z,98985.89
2023-02-26T00:25:52.276Z,98974.67
2023-02-26T00:28:26.156Z,98980.36
2023-02-26T00:30:59.406Z,98972.72
2023-02-26T00:33:33.055Z,98968.98
2023-02-26T00:36:25.827Z,98960.94
2023-02-26T00:39:22.083Z,98969.45
2023-02-26T00:41:56.068Z,98967.47
2023-02-26T00:44:29.336Z,98972.28
2023-02-26T00:47:27.432Z,98983.20
2023-02-26T00:50:27.204Z,98972.52
2023-02-26T00:53:29.196Z,98969.08
2023-02-26T00:56:01.996Z,98996.00
2023-02-26T00:58:35.265Z,98988.70
2023-02-26T01:01:08.321Z,98989.20
2023-02-26T01:03:42.160Z,98988.45
2023-02-26T01:06:18.502Z,98980.42
2023-02-26T01:09:34.862Z,98978.63
2023-02-26T01:12:13.234Z,98984.78
2023-02-26T01:14:48.731Z,98982.18
2023-02-26T01:17:34.372Z,98973.17
2023-02-26T01:20:19.543Z,98981.38
2023-02-26T01:22:56.946Z,98986.50
2023-02-26T01:25:58.592Z,98988.21
2023-02-26T01:28:33.116Z,98996.39
2023-02-26T01:31:08.113Z,98995.44
2023-02-26T01:33:47.319Z,99002.81
2023-02-26T01:36:26.668Z,98999.83
2023-02-26T01:39:23.002Z,99001.20
2023-02-26T01:42:09.140Z,99005.48
2023-02-26T01:44:58.198Z,99005.48
2023-02-26T01:47:44.240Z,99015.48
2023-02-26T01:50:25.470Z,99010.67
2023-02-26T01:53:20.967Z,99010.14
2023-02-26T01:56:03.765Z,99004.95
2023-02-26T01:58:38.995Z,99012.73
2023-02-26T02:01:13.085Z,99018.73
2023-02-26T02:03:46.596Z,99021.33
2023-02-26T02:06:23.999Z,99022.13
2023-02-26T02:08:57.094Z,99015.18
2023-02-26T02:11:30.550Z,99019.45
2023-02-26T02:14:20.117Z,99013.65
2023-02-26T02:17:17.458Z,99012.61
2023-02-26T02:20:10.404Z,99021.93
2023-02-26T02:23:17.090Z,99019.67
2023-02-26T02:26:39.844Z,99024.70
2023-02-26T02:29:35.955Z,99016.44
2023-02-26T02:32:39.491Z,99012.23
2023-02-26T02:35:25.481Z,99015.89
2023-02-26T02:38:21.223Z,99012.17
2023-02-26T02:40:59.317Z,99015.02
2023-02-26T02:43:35.166Z,99015.58
2023-02-26T02:46:12.558Z,99025.50
2023-02-26T02:49:11.639Z,99028.73
2023-02-26T02:51:55.041Z,99035.47
2023-02-26T02:54:35.482Z,99038.58
2023-02-26T02:57:16.274Z,99041.34
2023-02-26T02:59:55.064Z,99038.59
2023-02-26T03:02:42.067Z,99053.48
2023-02-26T03:05:15.584Z,99052.36
2023-02-26T03:07:53.189Z,99055.20
2023-02-26T03:10:26.020Z,99063.70
2023-02-26T03:12:59.389Z,99059.25
2023-02-26T03:15:52.613Z,99059.47
2023-02-26T03:18:48.588Z,99065.40
2023-02-26T03:21:27.522Z,99079.49
2023-02-26T03:24:19.890Z,99078.11
2023-02-26T03:27:06.315Z,99070.25
2023-02-26T03:29:49.181Z,99069.75
2023-02-26T03:32:32.514Z,99066.56
2023-02-26T03:35:12.708Z,99065.69
2023-02-26T03:37:50.312Z,99072.67
2023-02-26T03:40:43.172Z,99068.36
2023-02-26T03:43:27.490Z,99077.11
2023-02-26T03:46:06.272Z,99082.38
2023-02-26T03:48:39.351Z,99093.17
2023-02-26T03:51:14.841Z,99094.05
2023-02-26T03:54:00.126Z,99090.08
2023-02-26T03:56:46.455Z,99093.97
2023-02-26T03:59:31.479Z,99094.97
2023-02-26T04:02:34.624Z,99095.05
2023-02-26T04:05:16.423Z,99099.03
2023-02-26T04:07:50.222Z,99102.59
2023-02-26T04:10:30.731Z,99102.67
2023-02-26T04:13:04.731Z,99102.67
2023-02-26T04:15:37.261Z,99101.20
2023-02-26T04:18:09.879Z,99096.73
2023-02-26T04:20:44.451Z,99100.06
2023-02-26T04:23:17.189Z,99103.95
2023-02-26T04:25:51.280Z,99103.95
2023-02-26T04:28:24.294Z,99113.03
2023-02-26T04:30:58.095Z,99103.54
2023-02-26T04:33:31.947Z,99103.95
2023-02-26T04:36:05.519Z,99116.59
2023-02-26T04:38:39.985Z,99118.77
2023-02-26T04:41:12.815Z,99121.86
2023-02-26T04:43:46.742Z,99123.84
2023-02-26T04:46:21.606Z,99121.41
2023-02-26T04:48:54.598Z,99126.77
2023-02-26T04:51:28.034Z,99124.31
2023-02-26T04:54:01.101Z,99124.11
2023-02-26T04:56:34.293Z,99120.85
2023-02-26T04:59:07.433Z,99126.13
2023-02-26T05:01:40.222Z,99123.62
2023-02-26T05:04:13.464Z,99124.12
2023-02-26T05:06:47.235Z,99119.52
2023-02-26T05:09:21.544Z,99113.58
2023-02-26T05:11:55.361Z,99120.14
2023-02-26T05:14:28.552Z,99124.63
2023-02-26T05:17:03.521Z,99118.22
2023-02-26T05:19:36.914Z,99120.40
2023-02-26T05:22:10.112Z,99117.97
2023-02-26T05:24:44.104Z,99119.80
2023-02-26T05:27:17.402Z,99111.77
2023-02-26T05:29:51.447Z,99110.64
2023-02-26T05:32:24.432Z,99115.58
2023-02-26T05:34:57.314Z,99115.28
2023-02-26T05:37:30.345Z,99115.41
2023-02-26T05:40:03.976Z,99122.98
2023-02-26T05:42:37.214Z,99130.44
2023-02-26T05:45:11.138Z,99126.21
2023-02-26T05:47:43.915Z,99129.30
2023-02-26T05:50:16.690Z,99142.37
2023-02-26T05:52:50.345Z,99138.97
2023-02-26T05:55:23.800Z,99144.25
2023-02-26T05:57:56.886Z,99150.91
2023-02-26T06:00:31.198Z,99147.47
2023-02-26T06:03:04.120Z,99155.77
2023-02-26T06:05:37.387Z,99166.23
2023-02-26T06:08:12.405Z,99177.50
2023-02-26T06:10:45.593Z,99196.64
2023-02-26T06:13:18.581Z,99208.32
2023-02-26T06:15:54.003Z,99225.37
2023-02-26T06:18:27.133Z,99230.17
2023-02-26T06:21:00.903Z,99240.23
2023-02-26T06:23:34.250Z,99245.42
2023-02-26T06:26:08.102Z,99247.23
2023-02-26T06:28:41.858Z,99252.50
2023-02-26T06:31:14.740Z,99253.39
2023-02-26T06:33:47.493Z,99261.26
2023-02-26T06:36:20.327Z,99260.46
2023-02-26T06:38:53.418Z,99257.53
2023-02-26T06:41:26.762Z,99264.99
2023-02-26T06:43:59.659Z,99272.88
2023-02-26T06:46:33.341Z,99272.48
2023-02-26T06:49:07.524Z,99275.88
2023-02-26T06:51:41.039Z,99280.20
2023-02-26T06:54:14.567Z,99281.08
2023-02-26T06:56:48.259Z,99286.69
2023-02-26T06:59:22.265Z,99288.87
2023-02-26T07:01:55.290Z,99284.47
2023-02-26T07:04:28.337Z,99298.76
2023-02-26T07:07:01.308Z,99296.58
2023-02-26T07:09:34.576Z,99302.66
2023-02-26T07:12:08.269Z,99303.16
2023-02-26T07:14:43.162Z,99307.94
2023-02-26T07:17:17.700Z,99317.44
2023-02-26T07:19:52.617Z,99315.34
2023-02-26T07:22:25.639Z,99321.42
2023-02-26T07:25:00.299Z,99315.81
2023-02-26T07:27:34.612Z,99319.70
2023-02-26T07:30:09.749Z,99314.05
2023-02-26T07:32:42.746Z,99323.19
2023-02-26T07:35:15.913Z,99329.30
2023-02-26T07:37:52.461Z,99322.22
2023-02-26T07:40:27.885Z,99326.95
2023-02-26T07:43:01.313Z,99315.26
2023-02-26T07:45:34.501Z,99310.86
2023-02-26T07:48:07.901Z,99308.68
2023-02-26T07:50:43.858Z,99308.18
2023-02-26T07:53:17.242Z,99311.74
2023-02-26T07:55:50.589Z,99321.33
2023-02-26T07:58:23.929Z,99321.42
2023-02-26T08:00:57.306Z,99312.80
2023-02-26T08:03:32.456Z,99315.02
2023-02-26T08:06:07.617Z,99311.20
2023-02-26T08:08:40.951Z,99314.18
2023-02-26T08:11:13.793Z,99312.88
2023-02-26T08:13:46.984Z,99307.69
2023-02-26T08:16:20.480Z,99307.30
2023-02-26T08:18:53.620Z,99308.52
2023-02-26T08:21:27.847Z,99305.00
2023-02-26T08:24:00.648Z,99316.69
2023-02-26T08:26:35.935Z,99317.61
2023-02-26T08:29:09.321Z,99312.88
2023-02-26T08:31:43.189Z,99328.08
2023-02-26T08:34:16.891Z,99322.97
2023-02-26T08:36:50.670Z,99316.95
2023-02-26T08:39:24.046Z,99329.81
2023-02-26T08:41:56.904Z,99336.86
2023-02-26T08:44:30.399Z,99343.44
2023-02-26T08:47:04.097Z,99338.83
2023-02-26T08:49:37.932Z,99346.70
2023-02-26T08:52:11.027Z,99349.89
2023-02-26T08:54:44.365Z,99369.37
2023-02-26T08:57:17.429Z,99370.17
2023-02-26T08:59:51.440Z,99393.97
2023-02-26T09:02:24.412Z,99409.14
2023-02-26T09:04:57.225Z,99410.36
2023-02-26T09:07:30.265Z,99399.47
2023-02-26T09:10:03.680Z,99391.58
2023-02-26T09:12:37.230Z,99410.19
2023-02-26T09:15:12.496Z,99420.16
2023-02-26T09:17:45.976Z,99426.28
2023-02-26T09:20:19.498Z,99431.94
2023-02-26T09:22:53.060Z,99425.62
2023-02-26T09:25:26.058Z,99436.10
2023-02-26T09:27:59.184Z,99441.80
2023-02-26T09:30:32.765Z,99439.67
2023-02-26T09:33:06.359Z,99444.95
2023-02-26T09:35:39.093Z,99443.27
2023-02-26T09:38:12.207Z,99450.83
2023-02-26T09:40:55.191Z,99447.43
2023-02-26T09:44:13.029Z,99462.69
2023-02-26T09:47:18.439Z,99450.67
2023-02-26T09:50:14.230Z,99453.77
2023-02-26T09:53:12.628Z,99458.97
2023-02-26T09:55:50.511Z,99462.16
2023-02-26T09:58:40.564Z,99464.52
2023-02-26T10:01:36.382Z,99460.37
2023-02-26T10:04:34.407Z,99467.04
2023-02-26T10:07:47.948Z,99459.83
2023-02-26T10:10:33.279Z,99466.67
2023-02-26T10:13:06.601Z,99471.12
2023-02-26T10:15:43.764Z,99482.58
2023-02-26T10:18:21.915Z,99489.67
2023-02-26T10:21:17.237Z,99476.16
2023-02-26T10:24:01.910Z,99478.38
2023-02-26T10:26:40.382Z,99479.35
2023-02-26T10:29:53.204Z,99479.77
2023-02-26T10:32:42.438Z,99487.66
2023-02-26T10:35:18.442Z,99498.85
2023-02-26T10:38:00.581Z,99501.45
2023-02-26T10:40:56.532Z,99500.16
2023-02-26T10:43:36.926Z,99487.56
2023-02-26T10:46:45.877Z,99491.05
2023-02-26T10:49:42.708Z,99496.67
2023-02-26T10:52:26.088Z,99494.95
2023-02-26T10:55:39.162Z,99497.55
2023-02-26T10:58:19.488Z,99490.72
2023-02-26T11:00:56.232Z,99492.61
2023-02-26T11:03:39.346Z,99484.17
2023-02-26T11:06:16.360Z,99470.05
2023-02-26T11:08:56.192Z,99464.51
2023-02-26T11:11:54.577Z,99469.88
2023-02-26T11:14:30.823Z,99474.33
2023-02-26T11:17:22.380Z,99472.40
2023-02-26T11:20:07.870Z,99475.17
2023-02-26T11:22:41.348Z,99479.23
2023-02-26T11:25:21.365Z,99482.59
2023-02-26T11:27:58.962Z,99488.00
2023-02-26T11:30:36.634Z,99491.69
2023-02-26T11:33:19.713Z,99493.62
2023-02-26T11:35:53.430Z,99499.08
2023-02-26T11:38:28.615Z,99503.98
2023-02-26T11:41:03.481Z,99504.95
2023-02-26T11:43:46.472Z,99517.29
2023-02-26T11:46:20.129Z,99516.91
2023-02-26T11:48:54.012Z,99522.58
2023-02-26T11:51:31.592Z,99533.07
2023-02-26T11:54:04.936Z,99550.08
2023-02-26T11:56:46.700Z,99543.27
2023-02-26T11:59:25.190Z,99548.13
2023-02-26T12:02:03.727Z,99546.03
2023-02-26T12:04:36.646Z,99541.70
2023-02-26T12:07:13.950Z,99559.30
2023-02-26T12:09:48.415Z,99573.20
2023-02-26T12:12:29.458Z,99576.69
2023-02-26T12:15:46.082Z,99576.69
2023-02-26T12:18:39.318Z,99575.38
2023-02-26T12:21:19.590Z,99586.63
2023-02-26T12:24:13.863Z,99586.47
2023-02-26T12:27:01.276Z,99588.56
2023-02-26T12:30:06.456Z,99599.78
2023-02-26T12:32:53.518Z,99605.91
2023-02-26T12:35:48.294Z,99614.52
2023-02-26T12:38:34.582Z,99617.54
2023-02-26T12:41:40.909Z,99619.72
2023-02-26T12:44:23.896Z,99612.33
2023-02-26T12:47:36.715Z,99616.32
2023-02-26T12:50:20.205Z,99614.09
2023-02-26T12:53:00.531Z,99612.87
2023-02-26T12:55:59.803Z,99615.48
2023-02-26T12:59:12.037Z,99610.45
2023-02-26T13:02:03.980Z,99605.74
2023-02-26T13:04:53.305Z,99605.24
2023-02-26T13:07:55.503Z,99602.34
2023-02-26T13:10:44.641Z,99593.22
2023-02-26T13:13:40.972Z,99595.91
2023-02-26T13:16:33.609Z,99594.19
2023-02-26T13:19:38.050Z,99589.48
2023-02-26T13:22:36.712Z,99599.48
2023-02-26T13:25:28.885Z,99602.50
2023-02-26T13:28:08.015Z,99626.48
2023-02-26T13:30:46.641Z,99634.80
2023-02-26T13:33:24.229Z,99641.86
2023-02-26T13:35:58.249Z,99633.75
2023-02-26T13:39:03.285Z,99616.07
2023-02-26T13:41:48.028Z,99619.59
2023-02-26T13:44:50.579Z,99612.16
2023-02-26T13:47:58.533Z,99606.95
2023-02-26T13:50:47.832Z,99619.09
2023-02-26T13:53:45.666Z,99619.89
2023-02-26T13:56:39.422Z,99613.38
2023-02-26T13:59:38.482Z,99609.73
2023-02-26T14:02:34.054Z,99613.33
2023-02-26T14:05:28.176Z,99614.22
2023-02-26T14:08:24.417Z,99612.33
2023-02-26T14:11:21.245Z,99618.45
2023-02-26T14:14:32.896Z,99612.33
2023-02-26T14:17:14.019Z,99615.77
2023-02-26T14:19:59.021Z,99620.48
2023-02-26T14:22:43.430Z,99624.80
2023-02-26T14:25:50.073Z,99617.80
2023-02-26T14:28:33.424Z,99615.10
2023-02-26T14:31:14.164Z,99624.94
2023-02-26T14:34:18.434Z,99634.88
2023-02-26T14:37:00.806Z,99634.05
2023-02-26T14:39:44.998Z,99640.98
2023-02-26T14:42:31.697Z,99646.19
2023-02-26T14:45:11.387Z,99651.89
2023-02-26T14:47:45.905Z,99649.59
2023-02-26T14:50:21.555Z,99650.51
2023-02-26T14:53:30.898Z,99645.22
2023-02-26T14:56:55.813Z,99653.41
2023-02-26T14:59:57.466Z,99650.67
2023-02-26T15:03:00.709Z,99650.00
2023-02-26T15:05:47.746Z,99655.84
2023-02-26T15:08:28.142Z,99653.89
2023-02-26T15:11:46.435Z,99661.12
2023-02-26T15:14:48.413Z,99658.26
2023-02-26T15:17:31.897Z,99656.07
2023-02-26T15:20:24.728Z,99666.66
2023-02-26T15:23:14.790Z,99672.03
2023-02-26T15:25:50.495Z,99673.80
2023-02-26T15:28:39.458Z,99679.84
2023-02-26T15:31:14.385Z,99683.75
2023-02-26T15:33:51.233Z,99681.86
2023-02-26T15:36:24.907Z,99676.06
2023-02-26T15:39:02.000Z,99685.09
2023-02-26T15:41:35.384Z,99685.50
2023-02-26T15:44:13.567Z,99691.03
2023-02-26T15:46:50.152Z,99687.05
2023-02-26T15:49:30.587Z,99688.26
2023-02-26T15:52:05.924Z,99687.38
2023-02-26T15:54:49.431Z,99687.67
2023-02-26T15:57:24.538Z,99698.41
2023-02-26T16:00:17.742Z,99705.71
2023-02-26T16:02:53.686Z,99704.03
2023-02-26T16:05:28.838Z,99703.20
2023-02-26T16:08:01.679Z,99707.52
2023-02-26T16:10:38.554Z,99710.53
2023-02-26T16:13:18.654Z,99711.66
2023-02-26T16:15:51.960Z,99714.27
2023-02-26T16:18:26.978Z,99724.67
2023-02-26T16:21:02.166Z,99718.97
2023-02-26T16:23:47.991Z,99716.27
2023-02-26T16:26:37.087Z,99716.18
2023-02-26T16:29:14.764Z,99723.99
2023-02-26T16:31:52.240Z,99722.69
2023-02-26T16:34:44.884Z,99722.69
2023-02-26T16:37:34.013Z,99720.09
2023-02-26T16:40:24.600Z,99720.09
2023-02-26T16:43:10.175Z,99720.50
2023-02-26T16:45:51.007Z,99720.88
2023-02-26T16:48:30.008Z,99732.13
2023-02-26T16:51:14.868Z,99722.92
2023-02-26T16:53:52.345Z,99726.73
2023-02-26T16:56:29.880Z,99723.63
2023-02-26T16:59:21.673Z,99724.47
2023-02-26T17:02:08.823Z,99723.08
2023-02-26T17:04:42.145Z,99716.86
2023-02-26T17:07:28.745Z,99697.17
2023-02-26T17:10:21.015Z,99689.70
2023-02-26T17:12:59.725Z,99677.39
2023-02-26T17:15:38.966Z,99674.33
2023-02-26T17:18:13.328Z,99669.41
2023-02-26T17:20:47.442Z,99682.33
2023-02-26T17:23:24.580Z,99702.67
2023-02-26T17:25:59.492Z,99664.54
2023-02-26T17:28:42.824Z,99692.36
2023-02-26T17:31:16.267Z,99709.73
2023-02-26T17:33:50.530Z,99704.44
2023-02-26T17:36:22.685Z,99696.64
2023-02-26T17:38:55.103Z,99707.45
2023-02-26T17:41:30.758Z,99728.68
2023-02-26T17:44:02.760Z,99726.97
2023-02-26T17:46:35.612Z,99727.80
2023-02-26T17:49:09.105Z,99727.20
2023-02-26T17:51:41.966Z,99733.43
2023-02-26T17:54:14.761Z,99742.44
2023-02-26T17:56:47.545Z,99741.94
2023-02-26T17:59:20.981Z,99749.36
2023-02-26T18:01:53.725Z,99765.66
2023-02-26T18:04:27.308Z,99779.87
2023-02-26T18:07:00.331Z,99794.50
2023-02-26T18:09:33.548Z,99792.19
2023-02-26T18:12:07.514Z,99788.61
2023-02-26T18:14:40.679Z,99798.59
2023-02-26T18:17:22.133Z,99811.22
2023-02-26T18:19:55.402Z,99821.43
2023-02-26T18:22:28.269Z,99827.74
2023-02-26T18:25:01.914Z,99825.75
2023-02-26T18:27:35.797Z,99831.08
2023-02-26T18:30:24.902Z,99832.79
2023-02-26T18:32:58.021Z,99832.60
2023-02-26T18:35:32.778Z,99838.69
2023-02-26T18:38:05.744Z,99836.50
2023-02-26T18:40:38.826Z,99829.69
2023-02-26T18:43:12.917Z,99834.98
2023-02-26T18:45:49.344Z,99838.66
2023-02-26T18:48:22.978Z,99841.77
2023-02-26T18:50:59.734Z,99846.08
2023-02-26T18:53:34.281Z,99849.97
2023-02-26T18:56:08.174Z,99853.69
2023-02-26T18:58:41.807Z,99853.97
2023-02-26T19:01:15.323Z,99859.48
2023-02-26T19:03:48.261Z,99859.39
2023-02-26T19:06:21.371Z,99854.98
2023-02-26T19:08:54.780Z,99856.78
2023-02-26T19:11:27.729Z,99854.60
2023-02-26T19:14:01.635Z,99847.18
2023-02-26T19:16:37.126Z,99849.41
2023-02-26T19:19:12.813Z,99846.30
2023-02-26T19:21:46.119Z,99849.21
2023-02-26T19:24:19.326Z,99847.91
2023-02-26T19:26:52.284Z,99847.91
2023-02-26T19:29:25.125Z,99852.60
2023-02-26T19:31:58.413Z,99854.31
2023-02-26T19:34:32.406Z,99857.70
2023-02-26T19:37:05.239Z,99857.23
2023-02-26T19:39:38.497Z,99859.22
2023-02-26T19:42:12.230Z,99879.83
2023-02-26T19:44:45.267Z,99878.94
2023-02-26T19:47:18.471Z,99872.13
2023-02-26T19:49:51.364Z,99872.53
2023-02-26T19:52:24.180Z,99875.61
2023-02-26T19:54:56.920Z,99876.53
2023-02-26T19:57:30.298Z,99866.52
2023-02-26T20:00:03.595Z,99874.31
2023-02-26T20:02:38.062Z,99871.33
2023-02-26T20:05:13.305Z,99866.92
2023-02-26T20:07:48.386Z,99855.55
2023-02-26T20:10:23.486Z,99862.23
2023-02-26T20:12:58.676Z,99870.84
2023-02-26T20:15:31.752Z,99864.83
2023-02-26T20:18:04.682Z,99860.55
2023-02-26T20:20:37.651Z,99875.32
2023-02-26T20:23:10.566Z,99878.84
2023-02-26T20:25:45.524Z,99884.52
2023-02-26T20:28:20.881Z,99887.63
2023-02-26T20:30:52.847Z,99890.73
2023-02-26T20:33:26.374Z,99901.50
2023-02-26T20:35:59.090Z,99901.50
2023-02-26T20:38:31.898Z,99901.50
2023-02-26T20:41:05.938Z,99905.50
2023-02-26T20:43:38.990Z,99907.72
2023-02-26T20:46:13.338Z,99908.30
2023-02-26T20:48:46.335Z,99896.80
2023-02-26T20:51:19.239Z,99890.99
2023-02-26T20:53:52.255Z,99886.87
2023-02-26T20:56:25.745Z,99887.16
2023-02-26T20:58:58.516Z,99882.66
2023-02-26T21:01:32.922Z,99891.13
2023-02-26T21:04:09.576Z,99888.81
2023-02-26T21:06:42.584Z,99884.69
2023-02-26T21:09:17.206Z,99888.97
2023-02-26T21:11:51.681Z,99899.09
2023-02-26T21:14:26.696Z,99907.47
2023-02-26T21:16:59.782Z,99902.36
2023-02-26T21:19:33.721Z,99908.16
2023-02-26T21:22:07.549Z,99904.67
2023-02-26T21:24:40.269Z,99908.58
2023-02-26T21:27:13.228Z,99903.28
2023-02-26T21:29:46.541Z,99902.27
2023-02-26T21:32:19.611Z,99905.69
2023-02-26T21:34:52.624Z,99900.87
2023-02-26T21:37:26.331Z,99890.88
2023-02-26T21:39:59.578Z,99898.59
2023-02-26T21:42:32.288Z,99907.18
2023-02-26T21:45:05.600Z,99908.01
2023-02-26T21:47:39.040Z,99918.69
2023-02-26T21:50:13.097Z,99920.41
2023-02-26T21:52:46.283Z,99924.11
2023-02-26T21:55:19.285Z,99920.62
2023-02-26T21:57:52.099Z,99923.03
2023-02-26T22:00:25.180Z,99944.53
2023-02-26T22:02:58.123Z,99946.56
2023-02-26T22:05:30.808Z,99953.25
2023-02-26T22:08:03.577Z,99958.25
2023-02-26T22:10:36.595Z,99964.55
2023-02-26T22:13:09.445Z,99964.87
2023-02-26T22:15:43.516Z,99964.67
2023-02-26T22:18:18.319Z,99982.27
2023-02-26T22:20:51.211Z,99981.27
2023-02-26T22:23:24.649Z,99981.59
2023-02-26T22:25:57.526Z,99979.67
2023-02-26T22:28:30.694Z,99985.59
2023-02-26T22:31:03.723Z,99987.69
2023-02-26T22:33:36.971Z,99990.59
2023-02-26T22:36:10.897Z,99992.69
2023-02-26T22:38:43.785Z,99990.39
2023-02-26T22:41:18.128Z,100001.17
2023-02-26T22:43:53.883Z,99993.69
2023-02-26T22:46:28.731Z,100001.89
2023-02-26T22:49:01.832Z,100007.47
2023-02-26T22:51:35.207Z,100003.19
2023-02-26T22:54:08.480Z,99994.37
2023-02-26T22:56:41.134Z,100002.67
2023-02-26T22:59:14.381Z,100008.77
2023-02-26T23:01:47.294Z,100015.98
2023-02-26T23:04:20.506Z,100023.37
2023-02-26T23:06:53.408Z,100014.69
2023-02-26T23:09:28.034Z,100009.08
2023-02-26T23:12:00.927Z,100019.98
2023-02-26T23:14:34.449Z,100024.19
2023-02-26T23:17:09.241Z,100024.46
2023-02-26T23:19:42.064Z,100027.88
2023-02-26T23:22:15.441Z,100029.19
2023-02-26T23:24:49.076Z,100038.75
2023-02-26T23:27:22.652Z,100039.58
2023-02-26T23:29:56.124Z,100046.45
2023-02-26T23:32:29.679Z,100048.57
2023-02-26T23:35:03.318Z,100055.95
2023-02-26T23:37:36.461Z,100042.76
2023-02-26T23:40:11.755Z,100050.55
2023-02-26T23:42:45.355Z,100046.04
2023-02-26T23:45:18.188Z,100052.84
2023-02-26T23:47:52.898Z,100051.34
2023-02-26T23:50:26.136Z,100057.63
2023-02-26T23:52:58.932Z,100057.73
2023-02-26T23:55:31.804Z,100058.30
2023-02-26T23:58:04.533Z,100061.89
